Portada
METAR-TAF:

METAR-TAF

Aeroports :

Base Naval de Rota

Rota, Espanya

latitud: 36-39N, longitud: 006-21W, altitud: 26 m

Observació

L'informe es va fer fa 32 minuts, a les 23:30 UTC
Vent 4 kt del Nord/Nord-Est, variant entre Nord i Nord-Est
Temperatura 24°C
Humitat 74%
Pressió 1017 hPa
Visibilitat 10 km o més
sense núvols per sota de 1500 mi sense presència de cumulonimbus.

METAR: LERT 232330Z 02004KT 350V050 CAVOK 24/19 Q1017 NOSIG

Hora: 02:02 (00:02 UTC)

Pronòstic

L'informe es va fer fa 4 hores i 2 minuts, a les 20:00 UTC
Pronòstic vàlid del 23 a les 21 UTC al 24 a les 21 UTC
Vent 5 kt del Est/Sud-Est
Visibilitat 10 km o més
sense núvols per sota de 1500 mi sense presència de cumulonimbus.
Evolucionant progressivament
l' 24 a les 11 UTC al 24 a les 13 UTC
Vent 10 kt del Oest/Sud-Oest

TAF: LERT 232000Z 2321/2421 12005KT CAVOK TX34/2414Z TN20/2406Z BECMG 2411/2413 24010KT

Observacions i pronòstics meteorològics de més de 4000 aeroports (METAR i TAF).

Les estacions disponibles són els punts grocs i vermells al mapa.

Posi el ratolí al punt desitjat per veure el nom de l'estació.

Feu clic per veure les observacions i els pronòstics meteorològics.

Per canviar el mapa: feu clic els botons verds amb una creu de color negre per apropar; al botó verd amb un guió per allunyar la imatge; o en les fletxes verdes per a mapes adjacents.


METAR-TAF: